sensor_id;sensor_type;location;lat;lon;timestamp;P1;durP1;ratioP1;P2;durP2;ratioP2
50393;SDS011;36308;46.312;25.288;2023-02-12T00:01:35;70.75;;;36.17;;
50393;SDS011;36308;46.312;25.288;2023-02-12T00:04:01;49.63;;;27.30;;
50393;SDS011;36308;46.312;25.288;2023-02-12T00:09:49;51.58;;;25.95;;
50393;SDS011;36308;46.312;25.288;2023-02-12T00:12:14;49.22;;;26.60;;
50393;SDS011;36308;46.312;25.288;2023-02-12T00:14:41;56.47;;;29.08;;
50393;SDS011;36308;46.312;25.288;2023-02-12T00:20:28;54.38;;;29.92;;
50393;SDS011;36308;46.312;25.288;2023-02-12T00:22:53;52.10;;;28.10;;
50393;SDS011;36308;46.312;25.288;2023-02-12T00:25:18;53.58;;;28.40;;
50393;SDS011;36308;46.312;25.288;2023-02-12T00:27:44;52.33;;;28.13;;
50393;SDS011;36308;46.312;25.288;2023-02-12T00:30:10;53.78;;;29.13;;
50393;SDS011;36308;46.312;25.288;2023-02-12T00:32:36;64.63;;;33.42;;
50393;SDS011;36308;46.312;25.288;2023-02-12T00:35:01;62.05;;;33.10;;
50393;SDS011;36308;46.312;25.288;2023-02-12T00:37:27;60.25;;;33.70;;
50393;SDS011;36308;46.312;25.288;2023-02-12T00:39:53;68.40;;;36.38;;
50393;SDS011;36308;46.312;25.288;2023-02-12T00:42:18;62.20;;;33.90;;
50393;SDS011;36308;46.312;25.288;2023-02-12T00:44:44;63.83;;;32.58;;
50393;SDS011;36308;46.312;25.288;2023-02-12T00:49:53;59.88;;;30.92;;
50393;SDS011;36308;46.312;25.288;2023-02-12T00:52:19;66.90;;;33.45;;
50393;SDS011;36308;46.312;25.288;2023-02-12T00:54:44;66.70;;;35.25;;
50393;SDS011;36308;46.312;25.288;2023-02-12T00:57:09;67.72;;;36.00;;
50393;SDS011;36308;46.312;25.288;2023-02-12T00:59:35;70.53;;;35.75;;
50393;SDS011;36308;46.312;25.288;2023-02-12T01:02:04;66.03;;;34.80;;
50393;SDS011;36308;46.312;25.288;2023-02-12T01:04:29;69.88;;;35.67;;
50393;SDS011;36308;46.312;25.288;2023-02-12T01:06:55;67.53;;;35.78;;
50393;SDS011;36308;46.312;25.288;2023-02-12T01:09:20;64.72;;;34.70;;
50393;SDS011;36308;46.312;25.288;2023-02-12T01:11:46;75.47;;;39.72;;
50393;SDS011;36308;46.312;25.288;2023-02-12T01:14:11;73.20;;;37.88;;
50393;SDS011;36308;46.312;25.288;2023-02-12T01:16:37;69.28;;;36.05;;
50393;SDS011;36308;46.312;25.288;2023-02-12T01:19:03;69.05;;;35.85;;
50393;SDS011;36308;46.312;25.288;2023-02-12T01:21:32;66.70;;;36.40;;
50393;SDS011;36308;46.312;25.288;2023-02-12T01:23:59;65.97;;;35.58;;
50393;SDS011;36308;46.312;25.288;2023-02-12T01:26:25;73.03;;;38.38;;
50393;SDS011;36308;46.312;25.288;2023-02-12T01:28:53;67.97;;;38.78;;
50393;SDS011;36308;46.312;25.288;2023-02-12T01:31:27;75.95;;;39.03;;
50393;SDS011;36308;46.312;25.288;2023-02-12T01:33:55;75.05;;;38.70;;
50393;SDS011;36308;46.312;25.288;2023-02-12T01:36:22;74.15;;;37.63;;
50393;SDS011;36308;46.312;25.288;2023-02-12T01:38:48;69.18;;;37.45;;
50393;SDS011;36308;46.312;25.288;2023-02-12T01:41:15;73.60;;;38.60;;
50393;SDS011;36308;46.312;25.288;2023-02-12T01:43:43;72.90;;;39.03;;
50393;SDS011;36308;46.312;25.288;2023-02-12T01:46:09;71.97;;;37.15;;
50393;SDS011;36308;46.312;25.288;2023-02-12T01:48:39;71.20;;;37.92;;
50393;SDS011;36308;46.312;25.288;2023-02-12T01:51:10;72.65;;;38.88;;
50393;SDS011;36308;46.312;25.288;2023-02-12T01:53:43;77.40;;;42.25;;
50393;SDS011;36308;46.312;25.288;2023-02-12T01:56:13;75.40;;;41.17;;
50393;SDS011;36308;46.312;25.288;2023-02-12T01:58:40;74.68;;;40.83;;
50393;SDS011;36308;46.312;25.288;2023-02-12T02:01:10;73.53;;;38.03;;
50393;SDS011;36308;46.312;25.288;2023-02-12T02:06:13;66.03;;;35.30;;
50393;SDS011;36308;46.312;25.288;2023-02-12T02:08:42;69.13;;;35.65;;
50393;SDS011;36308;46.312;25.288;2023-02-12T02:11:08;65.63;;;34.92;;
50393;SDS011;36308;46.312;25.288;2023-02-12T02:13:52;66.57;;;33.70;;
50393;SDS011;36308;46.312;25.288;2023-02-12T02:16:39;55.28;;;31.10;;
50393;SDS011;36308;46.312;25.288;2023-02-12T02:30:31;67.57;;;35.45;;
50393;SDS011;36308;46.312;25.288;2023-02-12T02:36:33;68.00;;;38.17;;
50393;SDS011;36308;46.312;25.288;2023-02-12T02:38:53;69.63;;;36.50;;
50393;SDS011;36308;46.312;25.288;2023-02-12T02:44:26;71.25;;;36.47;;
50393;SDS011;36308;46.312;25.288;2023-02-12T02:46:59;64.30;;;34.85;;
50393;SDS011;36308;46.312;25.288;2023-02-12T02:49:36;71.38;;;39.42;;
50393;SDS011;36308;46.312;25.288;2023-02-12T02:52:10;77.28;;;41.08;;
50393;SDS011;36308;46.312;25.288;2023-02-12T02:54:46;79.75;;;46.35;;
50393;SDS011;36308;46.312;25.288;2023-02-12T02:59:50;80.93;;;43.67;;
50393;SDS011;36308;46.312;25.288;2023-02-12T03:02:21;75.78;;;38.88;;
50393;SDS011;36308;46.312;25.288;2023-02-12T03:04:53;68.93;;;36.53;;
50393;SDS011;36308;46.312;25.288;2023-02-12T03:07:40;65.28;;;33.92;;
50393;SDS011;36308;46.312;25.288;2023-02-12T03:12:47;56.65;;;28.30;;
50393;SDS011;36308;46.312;25.288;2023-02-12T03:15:18;57.03;;;30.85;;
50393;SDS011;36308;46.312;25.288;2023-02-12T03:17:51;51.78;;;28.85;;
50393;SDS011;36308;46.312;25.288;2023-02-12T03:20:22;67.13;;;36.40;;
50393;SDS011;36308;46.312;25.288;2023-02-12T03:22:57;69.05;;;39.00;;
50393;SDS011;36308;46.312;25.288;2023-02-12T03:25:37;63.78;;;33.75;;
50393;SDS011;36308;46.312;25.288;2023-02-12T03:28:09;67.78;;;34.15;;
50393;SDS011;36308;46.312;25.288;2023-02-12T03:33:15;63.17;;;33.30;;
50393;SDS011;36308;46.312;25.288;2023-02-12T03:35:54;67.40;;;35.10;;
50393;SDS011;36308;46.312;25.288;2023-02-12T03:41:04;57.63;;;30.23;;
50393;SDS011;36308;46.312;25.288;2023-02-12T03:48:50;62.55;;;32.55;;
50393;SDS011;36308;46.312;25.288;2023-02-12T03:51:34;59.60;;;31.83;;
50393;SDS011;36308;46.312;25.288;2023-02-12T03:54:02;59.25;;;30.70;;
50393;SDS011;36308;46.312;25.288;2023-02-12T03:56:32;64.00;;;32.47;;
50393;SDS011;36308;46.312;25.288;2023-02-12T03:59:03;58.88;;;31.27;;
50393;SDS011;36308;46.312;25.288;2023-02-12T04:01:30;57.25;;;31.95;;
50393;SDS011;36308;46.312;25.288;2023-02-12T04:03:58;60.33;;;32.67;;
50393;SDS011;36308;46.312;25.288;2023-02-12T04:06:27;66.13;;;34.50;;
50393;SDS011;36308;46.312;25.288;2023-02-12T04:08:53;64.38;;;34.40;;
50393;SDS011;36308;46.312;25.288;2023-02-12T04:16:47;64.18;;;32.70;;
50393;SDS011;36308;46.312;25.288;2023-02-12T04:27:21;68.72;;;35.85;;
50393;SDS011;36308;46.312;25.288;2023-02-12T04:29:54;77.20;;;38.30;;
50393;SDS011;36308;46.312;25.288;2023-02-12T04:32:27;73.70;;;38.10;;
50393;SDS011;36308;46.312;25.288;2023-02-12T04:35:04;67.82;;;37.05;;
50393;SDS011;36308;46.312;25.288;2023-02-12T04:37:47;80.25;;;41.63;;
50393;SDS011;36308;46.312;25.288;2023-02-12T04:40:18;75.57;;;39.63;;
50393;SDS011;36308;46.312;25.288;2023-02-12T04:42:46;79.00;;;41.05;;
50393;SDS011;36308;46.312;25.288;2023-02-12T04:45:14;81.28;;;40.58;;
50393;SDS011;36308;46.312;25.288;2023-02-12T04:47:51;79.10;;;41.92;;
50393;SDS011;36308;46.312;25.288;2023-02-12T04:50:17;77.50;;;41.33;;
50393;SDS011;36308;46.312;25.288;2023-02-12T04:52:43;87.38;;;46.25;;
50393;SDS011;36308;46.312;25.288;2023-02-12T04:55:09;87.38;;;46.92;;
50393;SDS011;36308;46.312;25.288;2023-02-12T04:57:35;79.93;;;42.10;;
50393;SDS011;36308;46.312;25.288;2023-02-12T05:00:01;86.47;;;44.95;;
50393;SDS011;36308;46.312;25.288;2023-02-12T05:02:29;87.25;;;47.05;;
50393;SDS011;36308;46.312;25.288;2023-02-12T05:04:55;92.53;;;47.92;;
50393;SDS011;36308;46.312;25.288;2023-02-12T05:07:21;100.97;;;52.08;;
50393;SDS011;36308;46.312;25.288;2023-02-12T05:09:46;100.50;;;50.22;;
50393;SDS011;36308;46.312;25.288;2023-02-12T05:12:12;88.65;;;44.78;;
50393;SDS011;36308;46.312;25.288;2023-02-12T05:14:37;79.13;;;40.60;;
50393;SDS011;36308;46.312;25.288;2023-02-12T05:17:03;76.32;;;37.40;;
50393;SDS011;36308;46.312;25.288;2023-02-12T05:19:28;72.47;;;37.05;;
50393;SDS011;36308;46.312;25.288;2023-02-12T05:21:54;84.22;;;42.97;;
50393;SDS011;36308;46.312;25.288;2023-02-12T05:24:19;75.55;;;39.80;;
50393;SDS011;36308;46.312;25.288;2023-02-12T05:26:45;72.47;;;37.67;;
50393;SDS011;36308;46.312;25.288;2023-02-12T05:29:13;84.18;;;43.95;;
50393;SDS011;36308;46.312;25.288;2023-02-12T05:31:39;90.35;;;47.85;;
50393;SDS011;36308;46.312;25.288;2023-02-12T05:34:05;92.88;;;51.50;;
50393;SDS011;36308;46.312;25.288;2023-02-12T05:36:34;99.47;;;54.15;;
50393;SDS011;36308;46.312;25.288;2023-02-12T05:38:59;120.85;;;57.90;;
50393;SDS011;36308;46.312;25.288;2023-02-12T05:41:25;114.63;;;56.58;;
50393;SDS011;36308;46.312;25.288;2023-02-12T05:43:51;112.53;;;53.55;;
50393;SDS011;36308;46.312;25.288;2023-02-12T05:46:18;182.63;;;84.97;;
50393;SDS011;36308;46.312;25.288;2023-02-12T05:48:45;152.93;;;73.63;;
50393;SDS011;36308;46.312;25.288;2023-02-12T05:51:13;120.28;;;60.65;;
50393;SDS011;36308;46.312;25.288;2023-02-12T05:53:41;101.85;;;52.67;;
50393;SDS011;36308;46.312;25.288;2023-02-12T05:58:47;112.13;;;55.53;;
50393;SDS011;36308;46.312;25.288;2023-02-12T06:01:21;111.20;;;56.60;;
50393;SDS011;36308;46.312;25.288;2023-02-12T06:03:55;107.10;;;55.75;;
50393;SDS011;36308;46.312;25.288;2023-02-12T06:06:23;103.57;;;55.13;;
50393;SDS011;36308;46.312;25.288;2023-02-12T06:08:50;105.20;;;52.88;;
50393;SDS011;36308;46.312;25.288;2023-02-12T06:11:16;99.72;;;51.72;;
50393;SDS011;36308;46.312;25.288;2023-02-12T06:13:42;98.43;;;52.25;;
50393;SDS011;36308;46.312;25.288;2023-02-12T06:16:24;93.88;;;51.85;;
50393;SDS011;36308;46.312;25.288;2023-02-12T06:18:51;96.50;;;51.63;;
50393;SDS011;36308;46.312;25.288;2023-02-12T06:21:18;82.97;;;45.67;;
50393;SDS011;36308;46.312;25.288;2023-02-12T06:23:45;85.50;;;47.05;;
50393;SDS011;36308;46.312;25.288;2023-02-12T06:26:10;85.78;;;46.38;;
50393;SDS011;36308;46.312;25.288;2023-02-12T06:28:36;89.25;;;46.40;;
50393;SDS011;36308;46.312;25.288;2023-02-12T06:31:02;94.35;;;48.72;;
50393;SDS011;36308;46.312;25.288;2023-02-12T06:33:28;87.10;;;46.10;;
50393;SDS011;36308;46.312;25.288;2023-02-12T06:39:15;95.55;;;51.53;;
50393;SDS011;36308;46.312;25.288;2023-02-12T06:41:41;94.82;;;51.33;;
50393;SDS011;36308;46.312;25.288;2023-02-12T06:44:09;109.93;;;58.38;;
50393;SDS011;36308;46.312;25.288;2023-02-12T06:46:35;121.82;;;63.10;;
50393;SDS011;36308;46.312;25.288;2023-02-12T06:49:01;117.55;;;60.03;;
50393;SDS011;36308;46.312;25.288;2023-02-12T06:51:27;94.85;;;49.88;;
50393;SDS011;36308;46.312;25.288;2023-02-12T06:53:53;98.90;;;51.03;;
50393;SDS011;36308;46.312;25.288;2023-02-12T06:56:20;102.45;;;53.20;;
50393;SDS011;36308;46.312;25.288;2023-02-12T06:58:50;112.97;;;56.85;;
50393;SDS011;36308;46.312;25.288;2023-02-12T07:01:19;125.13;;;61.55;;
50393;SDS011;36308;46.312;25.288;2023-02-12T07:03:50;109.30;;;55.40;;
50393;SDS011;36308;46.312;25.288;2023-02-12T07:06:21;105.57;;;53.15;;
50393;SDS011;36308;46.312;25.288;2023-02-12T07:08:47;95.40;;;49.28;;
50393;SDS011;36308;46.312;25.288;2023-02-12T07:11:13;82.75;;;44.13;;
50393;SDS011;36308;46.312;25.288;2023-02-12T07:13:39;71.55;;;39.05;;
50393;SDS011;36308;46.312;25.288;2023-02-12T07:16:07;66.43;;;35.55;;
50393;SDS011;36308;46.312;25.288;2023-02-12T07:18:35;70.88;;;36.33;;
50393;SDS011;36308;46.312;25.288;2023-02-12T07:21:01;106.90;;;52.90;;
50393;SDS011;36308;46.312;25.288;2023-02-12T07:23:28;98.95;;;50.83;;
50393;SDS011;36308;46.312;25.288;2023-02-12T07:25:55;133.20;;;73.68;;
50393;SDS011;36308;46.312;25.288;2023-02-12T07:28:26;133.75;;;71.63;;
50393;SDS011;36308;46.312;25.288;2023-02-12T07:30:52;109.05;;;60.33;;
50393;SDS011;36308;46.312;25.288;2023-02-12T07:33:17;109.82;;;60.70;;
50393;SDS011;36308;46.312;25.288;2023-02-12T07:35:43;286.65;;;156.02;;
50393;SDS011;36308;46.312;25.288;2023-02-12T07:38:09;148.35;;;81.10;;
50393;SDS011;36308;46.312;25.288;2023-02-12T07:40:36;147.48;;;79.45;;
50393;SDS011;36308;46.312;25.288;2023-02-12T07:43:01;448.77;;;243.15;;
50393;SDS011;36308;46.312;25.288;2023-02-12T07:48:49;149.80;;;82.38;;
50393;SDS011;36308;46.312;25.288;2023-02-12T07:51:16;141.23;;;78.47;;
50393;SDS011;36308;46.312;25.288;2023-02-12T07:53:45;215.20;;;106.43;;
50393;SDS011;36308;46.312;25.288;2023-02-12T07:56:12;160.52;;;82.13;;
50393;SDS011;36308;46.312;25.288;2023-02-12T07:58:38;285.77;;;124.97;;
50393;SDS011;36308;46.312;25.288;2023-02-12T08:01:12;167.90;;;86.80;;
50393;SDS011;36308;46.312;25.288;2023-02-12T08:03:39;109.13;;;61.05;;
50393;SDS011;36308;46.312;25.288;2023-02-12T08:06:06;110.88;;;59.30;;
50393;SDS011;36308;46.312;25.288;2023-02-12T08:08:35;103.25;;;57.53;;
50393;SDS011;36308;46.312;25.288;2023-02-12T08:11:03;103.57;;;57.53;;
50393;SDS011;36308;46.312;25.288;2023-02-12T08:13:30;116.00;;;59.00;;
50393;SDS011;36308;46.312;25.288;2023-02-12T08:16:03;124.20;;;69.65;;
50393;SDS011;36308;46.312;25.288;2023-02-12T08:18:31;111.07;;;59.65;;
50393;SDS011;36308;46.312;25.288;2023-02-12T08:21:01;236.82;;;141.23;;
50393;SDS011;36308;46.312;25.288;2023-02-12T08:23:28;154.23;;;85.47;;
50393;SDS011;36308;46.312;25.288;2023-02-12T08:25:53;232.20;;;117.18;;
50393;SDS011;36308;46.312;25.288;2023-02-12T08:28:19;145.25;;;77.60;;
50393;SDS011;36308;46.312;25.288;2023-02-12T08:30:44;111.35;;;60.17;;
50393;SDS011;36308;46.312;25.288;2023-02-12T08:36:36;74.15;;;42.67;;
50393;SDS011;36308;46.312;25.288;2023-02-12T08:39:03;81.28;;;41.15;;
50393;SDS011;36308;46.312;25.288;2023-02-12T08:41:29;72.50;;;40.45;;
50393;SDS011;36308;46.312;25.288;2023-02-12T08:43:56;71.80;;;36.72;;
50393;SDS011;36308;46.312;25.288;2023-02-12T08:46:29;73.30;;;38.33;;
50393;SDS011;36308;46.312;25.288;2023-02-12T08:48:59;72.18;;;38.83;;
50393;SDS011;36308;46.312;25.288;2023-02-12T08:51:31;64.32;;;35.53;;
50393;SDS011;36308;46.312;25.288;2023-02-12T08:53:59;95.82;;;51.40;;
50393;SDS011;36308;46.312;25.288;2023-02-12T08:56:27;71.82;;;39.90;;
50393;SDS011;36308;46.312;25.288;2023-02-12T08:58:54;70.05;;;37.15;;
50393;SDS011;36308;46.312;25.288;2023-02-12T09:01:22;77.18;;;38.58;;
50393;SDS011;36308;46.312;25.288;2023-02-12T09:03:49;67.45;;;35.42;;
50393;SDS011;36308;46.312;25.288;2023-02-12T09:06:16;67.10;;;35.70;;
50393;SDS011;36308;46.312;25.288;2023-02-12T09:08:43;83.25;;;40.35;;
50393;SDS011;36308;46.312;25.288;2023-02-12T09:11:12;74.13;;;38.67;;
50393;SDS011;36308;46.312;25.288;2023-02-12T09:13:44;99.85;;;48.83;;
50393;SDS011;36308;46.312;25.288;2023-02-12T09:16:11;87.78;;;46.30;;
50393;SDS011;36308;46.312;25.288;2023-02-12T09:18:37;84.13;;;46.00;;
50393;SDS011;36308;46.312;25.288;2023-02-12T09:21:12;87.78;;;46.42;;
50393;SDS011;36308;46.312;25.288;2023-02-12T09:23:40;77.78;;;44.67;;
50393;SDS011;36308;46.312;25.288;2023-02-12T09:26:08;102.72;;;51.08;;
50393;SDS011;36308;46.312;25.288;2023-02-12T09:28:35;86.63;;;46.13;;
50393;SDS011;36308;46.312;25.288;2023-02-12T09:31:10;88.15;;;47.17;;
50393;SDS011;36308;46.312;25.288;2023-02-12T09:33:38;84.30;;;44.08;;
50393;SDS011;36308;46.312;25.288;2023-02-12T09:36:05;94.97;;;49.55;;
50393;SDS011;36308;46.312;25.288;2023-02-12T09:38:36;89.70;;;46.22;;
50393;SDS011;36308;46.312;25.288;2023-02-12T09:46:50;88.72;;;47.70;;
50393;SDS011;36308;46.312;25.288;2023-02-12T09:51:54;89.22;;;48.72;;
50393;SDS011;36308;46.312;25.288;2023-02-12T09:54:22;80.20;;;44.67;;
50393;SDS011;36308;46.312;25.288;2023-02-12T09:56:56;80.85;;;46.05;;
50393;SDS011;36308;46.312;25.288;2023-02-12T09:59:38;80.30;;;44.63;;
50393;SDS011;36308;46.312;25.288;2023-02-12T10:02:14;69.40;;;39.28;;
50393;SDS011;36308;46.312;25.288;2023-02-12T10:04:44;72.40;;;38.70;;
50393;SDS011;36308;46.312;25.288;2023-02-12T10:07:25;74.00;;;42.45;;
50393;SDS011;36308;46.312;25.288;2023-02-12T10:15:55;67.72;;;39.20;;
50393;SDS011;36308;46.312;25.288;2023-02-12T10:26:41;83.30;;;44.60;;
50393;SDS011;36308;46.312;25.288;2023-02-12T10:29:31;88.75;;;49.50;;
50393;SDS011;36308;46.312;25.288;2023-02-12T10:31:59;73.45;;;41.30;;
50393;SDS011;36308;46.312;25.288;2023-02-12T10:34:30;93.00;;;49.55;;
50393;SDS011;36308;46.312;25.288;2023-02-12T10:37:02;82.07;;;45.67;;
50393;SDS011;36308;46.312;25.288;2023-02-12T10:39:29;86.10;;;47.35;;
50393;SDS011;36308;46.312;25.288;2023-02-12T10:42:18;79.00;;;42.25;;
50393;SDS011;36308;46.312;25.288;2023-02-12T10:44:54;81.70;;;44.85;;
50393;SDS011;36308;46.312;25.288;2023-02-12T10:47:20;76.57;;;42.45;;
50393;SDS011;36308;46.312;25.288;2023-02-12T10:49:58;71.97;;;42.40;;
50393;SDS011;36308;46.312;25.288;2023-02-12T10:54:59;79.57;;;46.55;;
50393;SDS011;36308;46.312;25.288;2023-02-12T10:57:26;62.83;;;35.15;;
50393;SDS011;36308;46.312;25.288;2023-02-12T10:59:55;61.80;;;36.13;;
50393;SDS011;36308;46.312;25.288;2023-02-12T11:05:25;65.97;;;38.15;;
50393;SDS011;36308;46.312;25.288;2023-02-12T11:07:54;71.95;;;40.20;;
50393;SDS011;36308;46.312;25.288;2023-02-12T11:13:45;65.60;;;37.17;;
50393;SDS011;36308;46.312;25.288;2023-02-12T11:16:27;74.60;;;41.20;;
50393;SDS011;36308;46.312;25.288;2023-02-12T11:19:04;59.83;;;33.85;;
50393;SDS011;36308;46.312;25.288;2023-02-12T11:21:32;58.08;;;36.30;;
50393;SDS011;36308;46.312;25.288;2023-02-12T11:24:41;57.25;;;33.35;;
50393;SDS011;36308;46.312;25.288;2023-02-12T11:32:45;52.75;;;30.70;;
50393;SDS011;36308;46.312;25.288;2023-02-12T11:35:22;47.83;;;29.67;;
50393;SDS011;36308;46.312;25.288;2023-02-12T11:37:52;53.25;;;31.45;;
50393;SDS011;36308;46.312;25.288;2023-02-12T11:40:24;51.67;;;31.90;;
50393;SDS011;36308;46.312;25.288;2023-02-12T11:46:20;49.53;;;29.88;;
50393;SDS011;36308;46.312;25.288;2023-02-12T11:48:48;56.67;;;33.72;;
50393;SDS011;36308;46.312;25.288;2023-02-12T11:51:19;62.83;;;37.53;;
50393;SDS011;36308;46.312;25.288;2023-02-12T11:53:49;63.13;;;39.40;;
50393;SDS011;36308;46.312;25.288;2023-02-12T11:56:18;77.88;;;45.67;;
50393;SDS011;36308;46.312;25.288;2023-02-12T11:58:45;73.68;;;44.47;;
50393;SDS011;36308;46.312;25.288;2023-02-12T12:04:15;394.77;;;217.27;;
50393;SDS011;36308;46.312;25.288;2023-02-12T12:06:47;492.50;;;278.60;;
50393;SDS011;36308;46.312;25.288;2023-02-12T12:14:53;193.35;;;101.70;;
50393;SDS011;36308;46.312;25.288;2023-02-12T12:20:26;153.50;;;90.93;;
50393;SDS011;36308;46.312;25.288;2023-02-12T12:23:07;152.02;;;85.43;;
50393;SDS011;36308;46.312;25.288;2023-02-12T12:25:42;197.65;;;119.80;;
50393;SDS011;36308;46.312;25.288;2023-02-12T12:31:05;120.72;;;71.53;;
50393;SDS011;36308;46.312;25.288;2023-02-12T12:45:23;100.82;;;65.85;;
50393;SDS011;36308;46.312;25.288;2023-02-12T13:07:17;127.38;;;86.10;;
50393;SDS011;36308;46.312;25.288;2023-02-12T13:21:17;53.15;;;31.02;;
50393;SDS011;36308;46.312;25.288;2023-02-12T13:24:18;85.25;;;47.17;;
50393;SDS011;36308;46.312;25.288;2023-02-12T13:27:17;59.88;;;35.22;;
50393;SDS011;36308;46.312;25.288;2023-02-12T13:29:48;51.15;;;28.77;;
50393;SDS011;36308;46.312;25.288;2023-02-12T13:32:31;55.03;;;30.77;;
50393;SDS011;36308;46.312;25.288;2023-02-12T13:35:01;56.45;;;32.40;;
50393;SDS011;36308;46.312;25.288;2023-02-12T13:40:06;45.35;;;27.52;;
50393;SDS011;36308;46.312;25.288;2023-02-12T13:45:44;48.33;;;30.33;;
50393;SDS011;36308;46.312;25.288;2023-02-12T13:48:32;76.15;;;41.58;;
50393;SDS011;36308;46.312;25.288;2023-02-12T14:02:03;50.63;;;30.73;;
50393;SDS011;36308;46.312;25.288;2023-02-12T14:04:31;50.67;;;30.58;;
50393;SDS011;36308;46.312;25.288;2023-02-12T14:07:02;54.78;;;30.15;;
50393;SDS011;36308;46.312;25.288;2023-02-12T14:14:49;48.08;;;29.83;;
50393;SDS011;36308;46.312;25.288;2023-02-12T14:25:39;63.08;;;38.80;;
50393;SDS011;36308;46.312;25.288;2023-02-12T14:30:25;55.08;;;32.50;;
50393;SDS011;36308;46.312;25.288;2023-02-12T14:35:33;52.70;;;32.10;;
50393;SDS011;36308;46.312;25.288;2023-02-12T14:38:00;60.75;;;33.42;;
50393;SDS011;36308;46.312;25.288;2023-02-12T14:43:20;50.80;;;29.83;;
50393;SDS011;36308;46.312;25.288;2023-02-12T14:51:32;57.40;;;32.67;;
50393;SDS011;36308;46.312;25.288;2023-02-12T14:54:03;63.95;;;34.28;;
50393;SDS011;36308;46.312;25.288;2023-02-12T14:56:41;57.80;;;32.55;;
50393;SDS011;36308;46.312;25.288;2023-02-12T14:59:18;55.38;;;31.95;;
50393;SDS011;36308;46.312;25.288;2023-02-12T15:01:48;65.78;;;35.60;;
50393;SDS011;36308;46.312;25.288;2023-02-12T15:04:27;61.63;;;33.25;;
50393;SDS011;36308;46.312;25.288;2023-02-12T15:06:57;70.38;;;38.97;;
50393;SDS011;36308;46.312;25.288;2023-02-12T15:09:32;62.85;;;34.95;;
50393;SDS011;36308;46.312;25.288;2023-02-12T15:12:04;76.30;;;40.53;;
50393;SDS011;36308;46.312;25.288;2023-02-12T15:14:39;55.78;;;30.60;;
50393;SDS011;36308;46.312;25.288;2023-02-12T15:17:10;97.22;;;50.70;;
50393;SDS011;36308;46.312;25.288;2023-02-12T15:24:45;101.70;;;54.15;;
50393;SDS011;36308;46.312;25.288;2023-02-12T15:27:11;89.70;;;49.22;;
50393;SDS011;36308;46.312;25.288;2023-02-12T15:29:44;79.00;;;43.80;;
50393;SDS011;36308;46.312;25.288;2023-02-12T15:32:21;98.75;;;57.00;;
50393;SDS011;36308;46.312;25.288;2023-02-12T15:34:49;67.20;;;37.30;;
50393;SDS011;36308;46.312;25.288;2023-02-12T15:37:26;70.20;;;39.08;;
50393;SDS011;36308;46.312;25.288;2023-02-12T15:39:54;95.05;;;49.25;;
50393;SDS011;36308;46.312;25.288;2023-02-12T15:42:23;110.60;;;57.72;;
50393;SDS011;36308;46.312;25.288;2023-02-12T15:45:00;90.05;;;47.60;;
50393;SDS011;36308;46.312;25.288;2023-02-12T15:47:42;124.63;;;62.03;;
50393;SDS011;36308;46.312;25.288;2023-02-12T15:50:13;122.82;;;65.60;;
50393;SDS011;36308;46.312;25.288;2023-02-12T15:52:41;143.13;;;77.95;;
50393;SDS011;36308;46.312;25.288;2023-02-12T15:55:13;113.15;;;63.47;;
50393;SDS011;36308;46.312;25.288;2023-02-12T15:57:42;111.83;;;61.53;;
50393;SDS011;36308;46.312;25.288;2023-02-12T16:00:21;101.47;;;53.85;;
50393;SDS011;36308;46.312;25.288;2023-02-12T16:03:18;102.88;;;54.83;;
50393;SDS011;36308;46.312;25.288;2023-02-12T16:05:49;98.72;;;54.42;;
50393;SDS011;36308;46.312;25.288;2023-02-12T16:08:16;98.90;;;52.85;;
50393;SDS011;36308;46.312;25.288;2023-02-12T16:10:45;111.20;;;58.38;;
50393;SDS011;36308;46.312;25.288;2023-02-12T16:13:34;103.32;;;55.08;;
50393;SDS011;36308;46.312;25.288;2023-02-12T16:18:35;93.88;;;50.30;;
50393;SDS011;36308;46.312;25.288;2023-02-12T16:21:19;90.53;;;50.67;;
50393;SDS011;36308;46.312;25.288;2023-02-12T16:23:48;96.80;;;51.47;;
50393;SDS011;36308;46.312;25.288;2023-02-12T16:26:22;79.30;;;44.83;;
50393;SDS011;36308;46.312;25.288;2023-02-12T16:28:51;90.93;;;50.58;;
50393;SDS011;36308;46.312;25.288;2023-02-12T16:31:19;91.15;;;52.08;;
50393;SDS011;36308;46.312;25.288;2023-02-12T16:33:49;85.50;;;49.70;;
50393;SDS011;36308;46.312;25.288;2023-02-12T16:43:49;69.63;;;41.60;;
50393;SDS011;36308;46.312;25.288;2023-02-12T16:46:47;79.40;;;45.33;;
50393;SDS011;36308;46.312;25.288;2023-02-12T16:49:18;83.30;;;45.75;;
50393;SDS011;36308;46.312;25.288;2023-02-12T16:51:46;80.05;;;45.83;;
50393;SDS011;36308;46.312;25.288;2023-02-12T16:54:28;105.90;;;59.63;;
50393;SDS011;36308;46.312;25.288;2023-02-12T16:56:56;98.65;;;56.50;;
50393;SDS011;36308;46.312;25.288;2023-02-12T16:59:22;106.93;;;58.30;;
50393;SDS011;36308;46.312;25.288;2023-02-12T17:01:55;110.43;;;58.10;;
50393;SDS011;36308;46.312;25.288;2023-02-12T17:04:28;78.97;;;45.83;;
50393;SDS011;36308;46.312;25.288;2023-02-12T17:06:54;72.68;;;41.03;;
50393;SDS011;36308;46.312;25.288;2023-02-12T17:09:20;79.90;;;43.70;;
50393;SDS011;36308;46.312;25.288;2023-02-12T17:11:46;91.50;;;51.75;;
50393;SDS011;36308;46.312;25.288;2023-02-12T17:14:15;89.30;;;52.40;;
50393;SDS011;36308;46.312;25.288;2023-02-12T17:16:43;86.38;;;51.08;;
50393;SDS011;36308;46.312;25.288;2023-02-12T17:19:09;73.93;;;44.97;;
50393;SDS011;36308;46.312;25.288;2023-02-12T17:21:36;78.22;;;45.60;;
50393;SDS011;36308;46.312;25.288;2023-02-12T17:24:17;75.93;;;42.10;;
50393;SDS011;36308;46.312;25.288;2023-02-12T17:26:49;71.82;;;40.25;;
50393;SDS011;36308;46.312;25.288;2023-02-12T17:29:19;71.63;;;41.42;;
50393;SDS011;36308;46.312;25.288;2023-02-12T17:31:47;75.60;;;42.33;;
50393;SDS011;36308;46.312;25.288;2023-02-12T17:34:13;73.65;;;42.65;;
50393;SDS011;36308;46.312;25.288;2023-02-12T17:36:39;88.78;;;46.60;;
50393;SDS011;36308;46.312;25.288;2023-02-12T17:39:05;84.10;;;47.58;;
50393;SDS011;36308;46.312;25.288;2023-02-12T17:41:33;101.78;;;52.70;;
50393;SDS011;36308;46.312;25.288;2023-02-12T17:43:58;98.28;;;54.08;;
50393;SDS011;36308;46.312;25.288;2023-02-12T17:46:25;127.00;;;67.53;;
50393;SDS011;36308;46.312;25.288;2023-02-12T17:48:52;190.07;;;95.82;;
50393;SDS011;36308;46.312;25.288;2023-02-12T17:51:18;165.48;;;81.10;;
50393;SDS011;36308;46.312;25.288;2023-02-12T17:53:44;159.93;;;80.55;;
50393;SDS011;36308;46.312;25.288;2023-02-12T17:56:11;145.70;;;75.50;;
50393;SDS011;36308;46.312;25.288;2023-02-12T17:58:45;195.32;;;97.40;;
50393;SDS011;36308;46.312;25.288;2023-02-12T18:01:13;201.55;;;100.80;;
50393;SDS011;36308;46.312;25.288;2023-02-12T18:03:40;181.55;;;93.95;;
50393;SDS011;36308;46.312;25.288;2023-02-12T18:06:06;252.73;;;122.78;;
50393;SDS011;36308;46.312;25.288;2023-02-12T18:08:33;166.00;;;91.18;;
50393;SDS011;36308;46.312;25.288;2023-02-12T18:11:03;150.95;;;81.05;;